createdAt,value
2023-05-09T05:51:53.027Z,100341.60
2023-05-09T05:54:23.017Z,100342.20
2023-05-09T05:56:51.117Z,100337.00
2023-05-09T05:59:18.918Z,100335.60
2023-05-09T06:01:46.738Z,100337.00
2023-05-09T06:04:14.865Z,100331.00
2023-05-09T06:06:43.422Z,100328.80
2023-05-09T06:09:11.667Z,100320.60
2023-05-09T06:11:39.497Z,100326.60
2023-05-09T06:14:07.393Z,100320.00
2023-05-09T06:16:35.515Z,100325.00
2023-05-09T06:19:03.588Z,100325.80
2023-05-09T06:21:31.418Z,100325.80
2023-05-09T06:24:08.467Z,100320.20
2023-05-09T06:26:40.209Z,100322.60
2023-05-09T06:29:08.331Z,100316.20
2023-05-09T06:31:38.753Z,100313.60
2023-05-09T06:34:07.537Z,100325.00
2023-05-09T06:36:35.509Z,100325.20
2023-05-09T06:39:03.313Z,100323.20
2023-05-09T06:41:31.056Z,100320.40
2023-05-09T06:43:58.827Z,100319.40
2023-05-09T06:46:26.798Z,100320.80
2023-05-09T06:48:54.612Z,100322.00
2023-05-09T06:51:22.726Z,100316.60
2023-05-09T06:53:51.183Z,100313.20
2023-05-09T06:56:23.097Z,100303.20
2023-05-09T06:58:51.251Z,100306.20
2023-05-09T07:01:19.203Z,100299.20
2023-05-09T07:03:47.695Z,100305.60
2023-05-09T07:06:15.995Z,100296.20
2023-05-09T07:08:43.910Z,100295.00
2023-05-09T07:11:11.864Z,100295.00
2023-05-09T07:13:39.997Z,100293.20
2023-05-09T07:16:08.059Z,100292.00
2023-05-09T07:18:36.165Z,100291.20
2023-05-09T07:21:04.172Z,100293.40
2023-05-09T07:23:32.139Z,100285.20
2023-05-09T07:26:00.052Z,100283.20
2023-05-09T07:28:27.914Z,100279.80
2023-05-09T07:30:56.356Z,100280.80
2023-05-09T07:33:24.270Z,100276.40
2023-05-09T07:35:53.115Z,100278.40
2023-05-09T07:38:20.953Z,100267.60
2023-05-09T07:40:48.880Z,100269.80
2023-05-09T07:43:16.963Z,100268.40
2023-05-09T07:45:45.276Z,100266.80
2023-05-09T07:48:13.514Z,100260.80
2023-05-09T07:50:42.147Z,100257.40
2023-05-09T07:53:10.035Z,100259.20
2023-05-09T07:55:38.318Z,100264.60
2023-05-09T07:58:06.466Z,100255.40
2023-05-09T08:00:34.575Z,100262.40
2023-05-09T08:03:02.773Z,100248.80
2023-05-09T08:05:31.052Z,100248.80
2023-05-09T08:07:59.549Z,100241.80
2023-05-09T08:10:30.727Z,100241.40
2023-05-09T08:12:58.828Z,100234.00
2023-05-09T08:15:27.458Z,100232.60
2023-05-09T08:17:55.738Z,100233.40
2023-05-09T08:20:24.405Z,100232.40
2023-05-09T08:22:52.256Z,100233.80
2023-05-09T08:25:20.872Z,100235.60
2023-05-09T08:27:49.490Z,100230.00
2023-05-09T08:30:18.556Z,100229.40
2023-05-09T08:32:46.577Z,100227.40
2023-05-09T08:35:14.800Z,100226.80
2023-05-09T08:37:42.852Z,100222.20
2023-05-09T08:40:11.102Z,100217.60
2023-05-09T08:42:40.236Z,100216.60
2023-05-09T08:45:15.206Z,100210.40
2023-05-09T08:47:43.243Z,100211.20
2023-05-09T08:50:12.144Z,100206.20
2023-05-09T08:52:40.186Z,100198.80
2023-05-09T08:55:08.410Z,100196.00
2023-05-09T08:57:36.290Z,100205.00
2023-05-09T09:00:06.541Z,100203.00
2023-05-09T09:02:34.633Z,100199.60
2023-05-09T09:05:03.100Z,100198.20
2023-05-09T09:07:31.417Z,100198.60
2023-05-09T09:09:59.406Z,100192.20
2023-05-09T09:12:27.163Z,100189.80
2023-05-09T09:14:58.182Z,100190.20
2023-05-09T09:17:29.750Z,100190.60
2023-05-09T09:20:01.116Z,100194.40
2023-05-09T09:22:33.901Z,100185.20
2023-05-09T09:25:02.238Z,100190.00
2023-05-09T09:27:30.183Z,100184.40
2023-05-09T09:30:18.963Z,100185.20
2023-05-09T09:32:46.831Z,100187.40
2023-05-09T09:35:14.697Z,100188.00
2023-05-09T09:37:45.082Z,100179.60
2023-05-09T09:40:14.429Z,100179.60
2023-05-09T09:42:47.783Z,100172.20
2023-05-09T09:45:17.187Z,100169.00
2023-05-09T09:47:47.115Z,100178.00
2023-05-09T09:50:20.400Z,100180.00
2023-05-09T09:52:52.869Z,100177.00
2023-05-09T09:55:21.198Z,100168.20
2023-05-09T09:57:49.130Z,100164.60
2023-05-09T10:00:26.145Z,100162.60
2023-05-09T10:02:56.924Z,100162.40
2023-05-09T10:05:26.177Z,100158.00
2023-05-09T10:07:56.696Z,100159.80
2023-05-09T10:10:33.584Z,100159.40
2023-05-09T10:13:10.741Z,100159.80
2023-05-09T10:15:52.359Z,100164.40
2023-05-09T10:18:28.480Z,100157.80
2023-05-09T10:21:01.204Z,100159.40
2023-05-09T10:23:30.994Z,100150.20
2023-05-09T10:26:27.832Z,100147.20
2023-05-09T10:28:56.325Z,100146.00
2023-05-09T10:31:28.547Z,100133.20
2023-05-09T10:33:56.660Z,100130.80
2023-05-09T10:36:25.181Z,100134.00
2023-05-09T10:38:54.799Z,100127.80
2023-05-09T10:41:23.890Z,100135.00
2023-05-09T10:43:52.055Z,100125.60
2023-05-09T10:46:20.007Z,100124.00
2023-05-09T10:48:48.294Z,100120.40
2023-05-09T10:51:16.439Z,100120.20
2023-05-09T10:53:46.736Z,100114.40
2023-05-09T10:56:35.702Z,100117.00
2023-05-09T10:59:04.133Z,100099.20
2023-05-09T11:01:39.017Z,100098.00
2023-05-09T11:04:11.663Z,100101.40
2023-05-09T11:06:51.782Z,100088.60
2023-05-09T11:09:38.826Z,100090.00
2023-05-09T11:12:14.528Z,100085.80
2023-05-09T11:14:45.071Z,100086.60
2023-05-09T11:17:26.777Z,100091.80
2023-05-09T11:20:05.961Z,100069.40
2023-05-09T11:22:44.695Z,100071.00
2023-05-09T11:25:14.654Z,100074.00
2023-05-09T11:27:48.662Z,100070.40
2023-05-09T11:30:20.191Z,100065.80
2023-05-09T11:32:55.551Z,100061.00
2023-05-09T11:35:23.984Z,100070.20
2023-05-09T11:38:06.047Z,100060.60
2023-05-09T11:40:34.962Z,100052.20
2023-05-09T11:43:02.873Z,100044.60
2023-05-09T11:45:32.913Z,100028.40
2023-05-09T11:48:01.459Z,100043.40
2023-05-09T11:50:29.506Z,100041.60
2023-05-09T11:52:57.531Z,100039.00
2023-05-09T11:55:25.966Z,100038.00
2023-05-09T11:57:54.411Z,100034.60
2023-05-09T12:00:24.321Z,100030.60
2023-05-09T12:02:53.558Z,100020.00
2023-05-09T12:05:23.214Z,100023.00
2023-05-09T12:07:52.592Z,100013.80
2023-05-09T12:10:22.944Z,100004.80
2023-05-09T12:12:53.218Z,100011.60
2023-05-09T12:15:22.195Z,100012.80
2023-05-09T12:18:04.456Z,100013.80
2023-05-09T12:20:46.416Z,100005.80
2023-05-09T12:23:14.951Z,100006.60
2023-05-09T12:25:53.393Z,100006.00
2023-05-09T12:28:23.009Z,99996.40
2023-05-09T12:30:51.816Z,99997.40
2023-05-09T12:33:20.056Z,99994.80
2023-05-09T12:35:49.116Z,99982.40
2023-05-09T12:38:23.623Z,99980.40
2023-05-09T12:41:05.427Z,99974.60
2023-05-09T12:43:39.530Z,99973.80
2023-05-09T12:46:08.771Z,99965.80
2023-05-09T12:48:39.879Z,99966.20
2023-05-09T12:51:08.249Z,99970.40
2023-05-09T12:53:41.069Z,99963.80
2023-05-09T12:56:17.232Z,99955.00
2023-05-09T12:58:52.696Z,99956.80
2023-05-09T13:01:27.823Z,99945.40
2023-05-09T13:04:06.389Z,99945.40
2023-05-09T13:06:34.876Z,99946.60
2023-05-09T13:09:06.108Z,99948.00
2023-05-09T13:11:34.425Z,99941.40
2023-05-09T13:14:04.201Z,99941.00
2023-05-09T13:16:32.156Z,99939.80
2023-05-09T13:19:01.812Z,99926.20
2023-05-09T13:21:29.850Z,99921.60
2023-05-09T13:23:57.605Z,99919.20
2023-05-09T13:26:26.013Z,99910.00
2023-05-09T13:28:53.933Z,99911.20
2023-05-09T13:31:22.776Z,99911.60
2023-05-09T13:33:51.904Z,99914.00
2023-05-09T13:36:20.326Z,99906.80
2023-05-09T13:38:48.142Z,99908.40
2023-05-09T13:41:20.510Z,99902.60
2023-05-09T13:43:48.634Z,99912.60
2023-05-09T13:46:16.444Z,99904.60
2023-05-09T13:48:44.799Z,99906.40
2023-05-09T13:51:12.763Z,99893.40
2023-05-09T13:53:40.686Z,99886.40
2023-05-09T13:56:09.845Z,99885.40
2023-05-09T13:58:37.902Z,99884.40
2023-05-09T14:01:05.977Z,99884.80
2023-05-09T14:03:34.032Z,99880.20
2023-05-09T14:06:01.891Z,99875.20
2023-05-09T14:08:29.793Z,99866.80
2023-05-09T14:10:57.837Z,99876.20
2023-05-09T14:13:25.744Z,99874.00
2023-05-09T14:15:53.861Z,99876.40
2023-05-09T14:18:21.768Z,99871.80
2023-05-09T14:20:49.613Z,99875.80
2023-05-09T14:23:17.328Z,99868.80
2023-05-09T14:25:45.275Z,99863.40
2023-05-09T14:28:13.090Z,99855.80
2023-05-09T14:30:41.161Z,99859.80
2023-05-09T14:33:09.277Z,99854.60
2023-05-09T14:35:39.655Z,99858.00
2023-05-09T14:38:08.979Z,99852.40
2023-05-09T14:40:37.112Z,99859.00
2023-05-09T14:43:06.032Z,99856.00
2023-05-09T14:45:34.080Z,99856.40
2023-05-09T14:48:05.904Z,99854.40
2023-05-09T14:50:33.766Z,99847.40
2023-05-09T14:53:02.166Z,99839.60
2023-05-09T14:55:31.250Z,99843.60
2023-05-09T14:57:59.585Z,99838.80
2023-05-09T15:00:28.631Z,99842.60
2023-05-09T15:02:57.158Z,99836.00
2023-05-09T15:05:25.280Z,99833.80
2023-05-09T15:07:53.207Z,99831.40
2023-05-09T15:10:21.463Z,99827.60
2023-05-09T15:12:49.727Z,99819.00
2023-05-09T15:15:20.092Z,99821.20
2023-05-09T15:17:48.134Z,99811.80
2023-05-09T15:20:18.428Z,99806.60
2023-05-09T15:22:47.575Z,99801.60
2023-05-09T15:25:16.434Z,99799.00
2023-05-09T15:27:44.414Z,99796.80
2023-05-09T15:30:13.172Z,99796.20
2023-05-09T15:32:41.218Z,99792.40
2023-05-09T15:35:14.407Z,99795.60
2023-05-09T15:37:44.684Z,99795.60
2023-05-09T15:40:13.643Z,99790.20
2023-05-09T15:42:42.488Z,99785.00
2023-05-09T15:45:10.643Z,99784.20
2023-05-09T15:47:38.631Z,99777.00
2023-05-09T15:50:08.032Z,99782.00
2023-05-09T15:52:36.769Z,99785.00
2023-05-09T15:55:05.726Z,99783.40
2023-05-09T15:57:33.512Z,99773.60
2023-05-09T16:00:01.350Z,99775.80
2023-05-09T16:02:29.592Z,99772.00
2023-05-09T16:04:57.467Z,99769.60
2023-05-09T16:07:26.184Z,99771.40
2023-05-09T16:09:54.218Z,99767.20
2023-05-09T16:12:22.154Z,99767.20
2023-05-09T16:14:50.029Z,99762.40
2023-05-09T16:17:17.916Z,99755.80
2023-05-09T16:19:45.977Z,99752.80
2023-05-09T16:22:14.135Z,99748.00
2023-05-09T16:24:41.971Z,99752.20
2023-05-09T16:27:09.900Z,99742.20
2023-05-09T16:29:37.675Z,99741.40
2023-05-09T16:32:07.778Z,99748.00
2023-05-09T16:34:36.281Z,99746.40
2023-05-09T16:37:04.115Z,99747.20
2023-05-09T16:39:32.448Z,99743.00
2023-05-09T16:42:00.279Z,99742.80
2023-05-09T16:44:28.432Z,99741.60
2023-05-09T16:46:56.312Z,99740.40
2023-05-09T16:52:43.479Z,99737.60
2023-05-09T16:55:11.247Z,99736.00
2023-05-09T16:57:39.064Z,99740.20
2023-05-09T17:00:09.899Z,99736.20
2023-05-09T17:02:37.770Z,99741.40
2023-05-09T17:05:06.784Z,99736.80
2023-05-09T17:07:34.645Z,99733.40
2023-05-09T17:10:02.794Z,99735.80
2023-05-09T17:12:30.841Z,99734.40
2023-05-09T17:14:58.624Z,99731.60
2023-05-09T17:17:26.520Z,99727.80
2023-05-09T17:19:54.593Z,99732.40
2023-05-09T17:22:23.369Z,99726.80
2023-05-09T17:24:51.449Z,99731.40
2023-05-09T17:27:19.244Z,99733.80
2023-05-09T17:29:47.539Z,99730.00
2023-05-09T17:32:16.372Z,99724.60
2023-05-09T17:34:44.167Z,99724.40
2023-05-09T17:37:12.606Z,99720.20
2023-05-09T17:39:42.357Z,99725.80
2023-05-09T17:42:12.204Z,99722.80
2023-05-09T17:44:43.035Z,99721.00
2023-05-09T17:47:14.104Z,99716.40
2023-05-09T17:49:42.160Z,99717.20
2023-05-09T17:52:10.066Z,99728.00
2023-05-09T17:54:37.984Z,99724.20
2023-05-09T17:57:06.051Z,99728.60
2023-05-09T17:59:33.867Z,99730.80
2023-05-09T18:02:01.848Z,99733.40
2023-05-09T18:04:31.728Z,99732.20
2023-05-09T18:07:00.155Z,99735.60
2023-05-09T18:09:28.230Z,99737.00
2023-05-09T18:11:56.035Z,99732.60
2023-05-09T18:14:23.939Z,99729.40
2023-05-09T18:16:51.721Z,99731.40
2023-05-09T18:19:19.758Z,99731.40
2023-05-09T18:21:47.528Z,99737.60
2023-05-09T18:24:17.051Z,99727.00
2023-05-09T18:26:45.060Z,99727.80
2023-05-09T18:29:13.227Z,99729.40
2023-05-09T18:31:41.955Z,99735.20
2023-05-09T18:34:09.864Z,99729.80
2023-05-09T18:36:37.681Z,99728.80
2023-05-09T18:39:05.704Z,99728.20
2023-05-09T18:41:34.306Z,99731.00
2023-05-09T18:44:02.072Z,99731.20
2023-05-09T18:46:31.946Z,99736.20
2023-05-09T18:49:00.056Z,99734.40
2023-05-09T18:51:27.914Z,99740.20
2023-05-09T18:53:56.704Z,99741.80
2023-05-09T18:56:25.701Z,99739.40
2023-05-09T18:58:53.626Z,99740.20
2023-05-09T19:01:21.958Z,99735.40
2023-05-09T19:03:54.157Z,99738.80
2023-05-09T19:06:22.236Z,99735.20
2023-05-09T19:08:50.109Z,99737.00
2023-05-09T19:11:18.019Z,99736.20
2023-05-09T19:13:48.861Z,99738.00
2023-05-09T19:16:18.913Z,99741.80
2023-05-09T19:18:47.422Z,99739.20
2023-05-09T19:21:15.942Z,99739.20
2023-05-09T19:23:49.303Z,99728.20
2023-05-09T19:26:18.175Z,99731.00
2023-05-09T19:28:47.202Z,99733.00
2023-05-09T19:31:15.563Z,99736.40
2023-05-09T19:33:45.767Z,99740.20
2023-05-09T19:36:14.088Z,99742.20
2023-05-09T19:38:41.896Z,99735.20
2023-05-09T19:41:10.945Z,99728.20
2023-05-09T19:43:38.744Z,99722.60
2023-05-09T19:46:06.546Z,99723.40
2023-05-09T19:48:35.953Z,99721.60
2023-05-09T19:51:04.414Z,99721.40
2023-05-09T19:53:32.286Z,99719.60
2023-05-09T19:56:00.148Z,99722.80
2023-05-09T19:58:28.123Z,99717.80
2023-05-09T20:00:56.100Z,99720.60
2023-05-09T20:03:24.076Z,99721.80
2023-05-09T20:05:57.862Z,99723.60
2023-05-09T20:08:26.026Z,99727.00
2023-05-09T20:10:54.249Z,99724.60
2023-05-09T20:13:22.245Z,99728.60
2023-05-09T20:15:50.251Z,99722.80
2023-05-09T20:18:18.634Z,99726.20
2023-05-09T20:20:46.359Z,99730.80
2023-05-09T20:23:14.223Z,99726.00
2023-05-09T20:25:42.217Z,99727.00
2023-05-09T20:28:12.249Z,99727.00
2023-05-09T20:30:40.174Z,99721.00
2023-05-09T20:33:08.043Z,99718.40
2023-05-09T20:35:35.850Z,99718.60
2023-05-09T20:38:04.663Z,99718.60
2023-05-09T20:40:32.552Z,99726.40
2023-05-09T20:43:00.405Z,99717.40
2023-05-09T20:45:28.738Z,99717.20
2023-05-09T20:47:56.820Z,99719.40
2023-05-09T20:50:24.735Z,99715.20
2023-05-09T20:52:52.575Z,99714.60
2023-05-09T20:55:20.743Z,99712.80
2023-05-09T20:57:48.513Z,99709.40
2023-05-09T21:00:16.789Z,99710.00
2023-05-09T21:02:44.929Z,99712.80
2023-05-09T21:05:12.724Z,99713.40
2023-05-09T21:07:40.673Z,99709.80
2023-05-09T21:10:10.372Z,99711.80
2023-05-09T21:12:38.340Z,99716.00
2023-05-09T21:15:07.693Z,99713.80
2023-05-09T21:17:35.614Z,99712.00
2023-05-09T21:20:03.827Z,99708.00
2023-05-09T21:22:31.590Z,99703.40
2023-05-09T21:24:59.452Z,99697.40
2023-05-09T21:27:29.890Z,99699.80
2023-05-09T21:29:58.246Z,99695.80
2023-05-09T21:32:26.144Z,99694.40
2023-05-09T21:34:54.260Z,99689.40
2023-05-09T21:37:22.126Z,99689.20
2023-05-09T21:39:50.096Z,99686.40
2023-05-09T21:42:17.957Z,99688.80
2023-05-09T21:44:45.776Z,99690.40
2023-05-09T21:47:13.805Z,99690.00
2023-05-09T21:49:41.749Z,99694.60
2023-05-09T21:52:09.498Z,99693.40
2023-05-09T21:54:37.336Z,99693.80
2023-05-09T21:57:05.594Z,99689.20
2023-05-09T21:59:33.366Z,99691.40
2023-05-09T22:02:01.402Z,99692.80
2023-05-09T22:04:29.312Z,99696.40
2023-05-09T22:06:57.104Z,99694.40
2023-05-09T22:09:24.932Z,99694.60
2023-05-09T22:11:53.105Z,99695.20
2023-05-09T22:14:21.069Z,99694.20
2023-05-09T22:16:48.852Z,99688.40
2023-05-09T22:19:17.407Z,99689.20
2023-05-09T22:21:45.268Z,99689.80
2023-05-09T22:24:13.048Z,99687.40
2023-05-09T22:26:40.866Z,99684.80
2023-05-09T22:29:08.631Z,99680.20
2023-05-09T22:31:36.495Z,99683.60
2023-05-09T22:34:04.247Z,99685.60
2023-05-09T22:36:32.196Z,99683.20
2023-05-09T22:39:00.030Z,99680.80
2023-05-09T22:41:27.880Z,99678.20
2023-05-09T22:43:56.171Z,99674.40
2023-05-09T22:46:24.117Z,99672.40
2023-05-09T22:48:52.158Z,99672.40
2023-05-09T22:51:20.010Z,99668.00
2023-05-09T22:53:47.854Z,99668.20
2023-05-09T22:56:16.348Z,99663.60
2023-05-09T22:58:44.475Z,99666.80
2023-05-09T23:01:12.468Z,99670.80
2023-05-09T23:03:40.655Z,99671.20
2023-05-09T23:06:08.544Z,99666.20
2023-05-09T23:08:36.458Z,99665.80
2023-05-09T23:11:04.868Z,99660.80
2023-05-09T23:13:32.729Z,99656.60
2023-05-09T23:16:00.501Z,99657.60
2023-05-09T23:18:28.749Z,99654.60
2023-05-09T23:20:56.624Z,99653.00
2023-05-09T23:23:24.458Z,99650.60
2023-05-09T23:25:52.557Z,99649.20
2023-05-09T23:28:25.273Z,99652.60
2023-05-09T23:30:54.101Z,99647.00
2023-05-09T23:33:21.985Z,99642.60
2023-05-09T23:35:50.054Z,99650.80
2023-05-09T23:38:18.149Z,99645.80
2023-05-09T23:40:46.239Z,99645.00
2023-05-09T23:43:14.201Z,99641.60
2023-05-09T23:45:42.753Z,99639.80
2023-05-09T23:48:11.226Z,99640.80
2023-05-09T23:50:39.451Z,99637.00
2023-05-09T23:53:07.397Z,99637.20
2023-05-09T23:55:35.274Z,99634.40
2023-05-09T23:58:03.340Z,99633.00
